sensor_id;sensor_type;location;lat;lon;timestamp;P1;durP1;ratioP1;P2;durP2;ratioP2
41627;SDS011;27321;50.816;6.054;2024-02-28T00:02:28;37.23;;;19.80;;
41627;SDS011;27321;50.816;6.054;2024-02-28T00:05:30;34.10;;;18.87;;
41627;SDS011;27321;50.816;6.054;2024-02-28T00:08:32;33.08;;;16.90;;
41627;SDS011;27321;50.816;6.054;2024-02-28T00:11:33;33.83;;;18.27;;
41627;SDS011;27321;50.816;6.054;2024-02-28T00:14:34;35.70;;;18.73;;
41627;SDS011;27321;50.816;6.054;2024-02-28T00:17:34;35.00;;;18.67;;
41627;SDS011;27321;50.816;6.054;2024-02-28T00:20:39;33.20;;;17.77;;
41627;SDS011;27321;50.816;6.054;2024-02-28T00:23:40;37.07;;;19.73;;
41627;SDS011;27321;50.816;6.054;2024-02-28T00:26:41;32.13;;;18.03;;
41627;SDS011;27321;50.816;6.054;2024-02-28T00:32:43;35.27;;;17.43;;
41627;SDS011;27321;50.816;6.054;2024-02-28T00:35:44;33.70;;;18.67;;
41627;SDS011;27321;50.816;6.054;2024-02-28T00:38:45;38.13;;;19.37;;
41627;SDS011;27321;50.816;6.054;2024-02-28T00:41:46;38.70;;;19.70;;
41627;SDS011;27321;50.816;6.054;2024-02-28T00:44:47;37.10;;;18.67;;
41627;SDS011;27321;50.816;6.054;2024-02-28T00:47:48;34.33;;;18.47;;
41627;SDS011;27321;50.816;6.054;2024-02-28T00:50:49;33.35;;;18.40;;
41627;SDS011;27321;50.816;6.054;2024-02-28T00:53:50;38.13;;;19.80;;
41627;SDS011;27321;50.816;6.054;2024-02-28T00:56:51;34.13;;;17.87;;
41627;SDS011;27321;50.816;6.054;2024-02-28T00:59:52;38.67;;;20.53;;
41627;SDS011;27321;50.816;6.054;2024-02-28T01:02:54;37.70;;;20.13;;
41627;SDS011;27321;50.816;6.054;2024-02-28T01:05:56;33.20;;;18.33;;
41627;SDS011;27321;50.816;6.054;2024-02-28T01:08:57;39.83;;;20.33;;
41627;SDS011;27321;50.816;6.054;2024-02-28T01:11:57;39.87;;;20.33;;
41627;SDS011;27321;50.816;6.054;2024-02-28T01:14:59;36.40;;;18.83;;
41627;SDS011;27321;50.816;6.054;2024-02-28T01:18:02;38.37;;;19.00;;
41627;SDS011;27321;50.816;6.054;2024-02-28T01:21:03;35.58;;;19.75;;
41627;SDS011;27321;50.816;6.054;2024-02-28T01:24:04;39.63;;;20.60;;
41627;SDS011;27321;50.816;6.054;2024-02-28T01:27:05;36.50;;;19.33;;
41627;SDS011;27321;50.816;6.054;2024-02-28T01:30:06;39.30;;;20.20;;
41627;SDS011;27321;50.816;6.054;2024-02-28T01:33:08;37.83;;;18.13;;
41627;SDS011;27321;50.816;6.054;2024-02-28T01:36:10;35.60;;;18.77;;
41627;SDS011;27321;50.816;6.054;2024-02-28T01:39:12;40.73;;;20.50;;
41627;SDS011;27321;50.816;6.054;2024-02-28T01:42:13;27.67;;;14.80;;
41627;SDS011;27321;50.816;6.054;2024-02-28T01:45:15;40.33;;;19.77;;
41627;SDS011;27321;50.816;6.054;2024-02-28T01:48:16;36.67;;;19.70;;
41627;SDS011;27321;50.816;6.054;2024-02-28T01:51:17;37.70;;;19.47;;
41627;SDS011;27321;50.816;6.054;2024-02-28T01:54:18;33.15;;;17.92;;
41627;SDS011;27321;50.816;6.054;2024-02-28T01:57:20;35.27;;;18.13;;
41627;SDS011;27321;50.816;6.054;2024-02-28T02:00:22;36.07;;;19.60;;
41627;SDS011;27321;50.816;6.054;2024-02-28T02:03:25;37.97;;;19.33;;
41627;SDS011;27321;50.816;6.054;2024-02-28T02:06:26;38.73;;;20.23;;
41627;SDS011;27321;50.816;6.054;2024-02-28T02:09:27;43.53;;;20.67;;
41627;SDS011;27321;50.816;6.054;2024-02-28T02:12:28;41.87;;;20.47;;
41627;SDS011;27321;50.816;6.054;2024-02-28T02:15:29;35.00;;;18.87;;
41627;SDS011;27321;50.816;6.054;2024-02-28T02:18:31;36.43;;;20.53;;
41627;SDS011;27321;50.816;6.054;2024-02-28T02:21:34;41.17;;;20.87;;
41627;SDS011;27321;50.816;6.054;2024-02-28T02:24:38;39.00;;;19.93;;
41627;SDS011;27321;50.816;6.054;2024-02-28T02:27:39;41.57;;;20.07;;
41627;SDS011;27321;50.816;6.054;2024-02-28T02:30:40;39.40;;;19.73;;
41627;SDS011;27321;50.816;6.054;2024-02-28T02:33:45;40.67;;;21.00;;
41627;SDS011;27321;50.816;6.054;2024-02-28T02:36:46;38.27;;;20.43;;
41627;SDS011;27321;50.816;6.054;2024-02-28T02:39:47;40.17;;;20.47;;
41627;SDS011;27321;50.816;6.054;2024-02-28T02:42:48;40.63;;;21.20;;
41627;SDS011;27321;50.816;6.054;2024-02-28T02:45:49;37.60;;;19.60;;
41627;SDS011;27321;50.816;6.054;2024-02-28T02:48:50;36.40;;;18.73;;
41627;SDS011;27321;50.816;6.054;2024-02-28T02:51:52;33.63;;;17.23;;
41627;SDS011;27321;50.816;6.054;2024-02-28T02:54:53;34.67;;;18.17;;
41627;SDS011;27321;50.816;6.054;2024-02-28T02:57:54;37.97;;;18.13;;
41627;SDS011;27321;50.816;6.054;2024-02-28T03:00:55;38.22;;;18.90;;
41627;SDS011;27321;50.816;6.054;2024-02-28T03:03:56;41.92;;;20.45;;
41627;SDS011;27321;50.816;6.054;2024-02-28T03:06:57;40.13;;;21.60;;
41627;SDS011;27321;50.816;6.054;2024-02-28T03:09:58;38.23;;;20.17;;
41627;SDS011;27321;50.816;6.054;2024-02-28T03:12:59;38.35;;;19.60;;
41627;SDS011;27321;50.816;6.054;2024-02-28T03:16:05;43.47;;;21.37;;
41627;SDS011;27321;50.816;6.054;2024-02-28T03:19:07;42.27;;;20.57;;
41627;SDS011;27321;50.816;6.054;2024-02-28T03:22:08;44.07;;;22.53;;
41627;SDS011;27321;50.816;6.054;2024-02-28T03:25:09;42.53;;;20.97;;
41627;SDS011;27321;50.816;6.054;2024-02-28T03:28:10;41.92;;;21.77;;
41627;SDS011;27321;50.816;6.054;2024-02-28T03:31:11;39.23;;;21.20;;
41627;SDS011;27321;50.816;6.054;2024-02-28T03:34:11;38.53;;;19.53;;
41627;SDS011;27321;50.816;6.054;2024-02-28T03:37:12;41.10;;;20.40;;
41627;SDS011;27321;50.816;6.054;2024-02-28T03:40:13;39.03;;;19.87;;
41627;SDS011;27321;50.816;6.054;2024-02-28T03:43:15;34.50;;;16.83;;
41627;SDS011;27321;50.816;6.054;2024-02-28T03:46:15;37.47;;;18.33;;
41627;SDS011;27321;50.816;6.054;2024-02-28T03:49:16;31.13;;;16.77;;
41627;SDS011;27321;50.816;6.054;2024-02-28T03:52:17;34.10;;;16.87;;
41627;SDS011;27321;50.816;6.054;2024-02-28T03:55:18;36.57;;;17.63;;
41627;SDS011;27321;50.816;6.054;2024-02-28T03:58:19;34.50;;;18.37;;
41627;SDS011;27321;50.816;6.054;2024-02-28T04:01:20;35.77;;;18.90;;
41627;SDS011;27321;50.816;6.054;2024-02-28T04:04:21;32.03;;;17.10;;
41627;SDS011;27321;50.816;6.054;2024-02-28T04:07:22;36.73;;;17.93;;
41627;SDS011;27321;50.816;6.054;2024-02-28T04:10:23;33.25;;;17.77;;
41627;SDS011;27321;50.816;6.054;2024-02-28T04:13:24;36.07;;;17.80;;
41627;SDS011;27321;50.816;6.054;2024-02-28T04:16:25;32.33;;;17.43;;
41627;SDS011;27321;50.816;6.054;2024-02-28T04:19:26;33.93;;;17.17;;
41627;SDS011;27321;50.816;6.054;2024-02-28T04:22:27;34.40;;;17.03;;
41627;SDS011;27321;50.816;6.054;2024-02-28T04:25:28;33.63;;;16.93;;
41627;SDS011;27321;50.816;6.054;2024-02-28T04:28:28;33.20;;;16.97;;
41627;SDS011;27321;50.816;6.054;2024-02-28T04:31:29;32.23;;;16.63;;
41627;SDS011;27321;50.816;6.054;2024-02-28T04:34:31;32.05;;;16.65;;
41627;SDS011;27321;50.816;6.054;2024-02-28T04:37:32;30.07;;;16.07;;
41627;SDS011;27321;50.816;6.054;2024-02-28T04:40:34;34.83;;;17.33;;
41627;SDS011;27321;50.816;6.054;2024-02-28T04:43:36;35.03;;;17.83;;
41627;SDS011;27321;50.816;6.054;2024-02-28T04:46:37;34.90;;;17.83;;
41627;SDS011;27321;50.816;6.054;2024-02-28T04:49:38;35.30;;;17.40;;
41627;SDS011;27321;50.816;6.054;2024-02-28T04:52:39;32.83;;;16.23;;
41627;SDS011;27321;50.816;6.054;2024-02-28T04:55:40;34.37;;;16.33;;
41627;SDS011;27321;50.816;6.054;2024-02-28T04:58:41;32.73;;;17.17;;
41627;SDS011;27321;50.816;6.054;2024-02-28T05:01:42;32.70;;;16.53;;
41627;SDS011;27321;50.816;6.054;2024-02-28T05:04:43;32.63;;;16.60;;
41627;SDS011;27321;50.816;6.054;2024-02-28T05:07:44;32.10;;;16.90;;
41627;SDS011;27321;50.816;6.054;2024-02-28T05:10:45;31.10;;;16.10;;
41627;SDS011;27321;50.816;6.054;2024-02-28T05:13:46;31.27;;;15.20;;
41627;SDS011;27321;50.816;6.054;2024-02-28T05:16:47;30.03;;;16.10;;
41627;SDS011;27321;50.816;6.054;2024-02-28T05:19:48;29.73;;;15.25;;
41627;SDS011;27321;50.816;6.054;2024-02-28T05:22:49;29.73;;;15.67;;
41627;SDS011;27321;50.816;6.054;2024-02-28T05:25:50;28.27;;;15.67;;
41627;SDS011;27321;50.816;6.054;2024-02-28T05:28:51;33.17;;;15.20;;
41627;SDS011;27321;50.816;6.054;2024-02-28T05:31:51;26.50;;;14.37;;
41627;SDS011;27321;50.816;6.054;2024-02-28T05:34:52;31.33;;;15.33;;
41627;SDS011;27321;50.816;6.054;2024-02-28T05:37:53;30.60;;;15.50;;
41627;SDS011;27321;50.816;6.054;2024-02-28T05:40:55;28.60;;;16.00;;
41627;SDS011;27321;50.816;6.054;2024-02-28T05:43:56;31.97;;;15.43;;
41627;SDS011;27321;50.816;6.054;2024-02-28T05:46:56;29.13;;;14.97;;
41627;SDS011;27321;50.816;6.054;2024-02-28T05:49:57;30.17;;;15.43;;
41627;SDS011;27321;50.816;6.054;2024-02-28T05:52:58;28.93;;;15.57;;
41627;SDS011;27321;50.816;6.054;2024-02-28T05:55:59;30.57;;;15.53;;
41627;SDS011;27321;50.816;6.054;2024-02-28T05:59:03;28.37;;;14.40;;
41627;SDS011;27321;50.816;6.054;2024-02-28T06:02:04;32.43;;;15.93;;
41627;SDS011;27321;50.816;6.054;2024-02-28T06:05:05;30.53;;;16.80;;
41627;SDS011;27321;50.816;6.054;2024-02-28T06:08:06;28.90;;;15.50;;
41627;SDS011;27321;50.816;6.054;2024-02-28T06:11:07;28.07;;;14.87;;
41627;SDS011;27321;50.816;6.054;2024-02-28T06:14:08;28.40;;;14.95;;
41627;SDS011;27321;50.816;6.054;2024-02-28T06:17:09;31.20;;;15.37;;
41627;SDS011;27321;50.816;6.054;2024-02-28T06:20:10;30.60;;;14.80;;
41627;SDS011;27321;50.816;6.054;2024-02-28T06:23:11;27.20;;;14.63;;
41627;SDS011;27321;50.816;6.054;2024-02-28T06:26:12;29.53;;;15.90;;
41627;SDS011;27321;50.816;6.054;2024-02-28T06:29:16;24.97;;;13.67;;
41627;SDS011;27321;50.816;6.054;2024-02-28T06:35:19;29.00;;;14.60;;
41627;SDS011;27321;50.816;6.054;2024-02-28T06:38:21;30.00;;;16.00;;
41627;SDS011;27321;50.816;6.054;2024-02-28T06:41:22;30.13;;;14.27;;
41627;SDS011;27321;50.816;6.054;2024-02-28T06:44:23;27.20;;;14.40;;
41627;SDS011;27321;50.816;6.054;2024-02-28T06:47:23;27.10;;;14.03;;
41627;SDS011;27321;50.816;6.054;2024-02-28T06:50:24;26.93;;;14.83;;
41627;SDS011;27321;50.816;6.054;2024-02-28T06:53:25;30.37;;;15.50;;
41627;SDS011;27321;50.816;6.054;2024-02-28T06:56:26;27.70;;;14.23;;
41627;SDS011;27321;50.816;6.054;2024-02-28T06:59:27;24.17;;;13.67;;
41627;SDS011;27321;50.816;6.054;2024-02-28T07:02:29;23.10;;;12.80;;
41627;SDS011;27321;50.816;6.054;2024-02-28T07:05:29;26.57;;;12.93;;
41627;SDS011;27321;50.816;6.054;2024-02-28T07:08:31;23.83;;;12.50;;
41627;SDS011;27321;50.816;6.054;2024-02-28T07:11:32;23.27;;;12.23;;
41627;SDS011;27321;50.816;6.054;2024-02-28T07:14:33;23.77;;;12.80;;
41627;SDS011;27321;50.816;6.054;2024-02-28T07:17:34;24.47;;;13.13;;
41627;SDS011;27321;50.816;6.054;2024-02-28T07:20:35;24.47;;;12.43;;
41627;SDS011;27321;50.816;6.054;2024-02-28T07:23:39;23.37;;;12.27;;
41627;SDS011;27321;50.816;6.054;2024-02-28T07:26:41;23.07;;;11.63;;
41627;SDS011;27321;50.816;6.054;2024-02-28T07:29:42;22.97;;;12.30;;
41627;SDS011;27321;50.816;6.054;2024-02-28T07:32:44;24.37;;;12.00;;
41627;SDS011;27321;50.816;6.054;2024-02-28T07:35:48;22.60;;;11.63;;
41627;SDS011;27321;50.816;6.054;2024-02-28T07:38:53;21.03;;;11.53;;
41627;SDS011;27321;50.816;6.054;2024-02-28T07:41:53;22.30;;;12.07;;
41627;SDS011;27321;50.816;6.054;2024-02-28T07:44:54;23.33;;;11.23;;
41627;SDS011;27321;50.816;6.054;2024-02-28T07:47:57;20.47;;;10.57;;
41627;SDS011;27321;50.816;6.054;2024-02-28T07:50:58;20.33;;;10.90;;
41627;SDS011;27321;50.816;6.054;2024-02-28T07:53:59;21.07;;;11.03;;
41627;SDS011;27321;50.816;6.054;2024-02-28T07:57:00;20.45;;;10.43;;
41627;SDS011;27321;50.816;6.054;2024-02-28T08:00:07;22.70;;;12.83;;
41627;SDS011;27321;50.816;6.054;2024-02-28T08:03:13;22.27;;;12.03;;
41627;SDS011;27321;50.816;6.054;2024-02-28T08:06:14;24.53;;;12.33;;
41627;SDS011;27321;50.816;6.054;2024-02-28T08:09:16;21.47;;;11.20;;
41627;SDS011;27321;50.816;6.054;2024-02-28T08:12:18;23.13;;;11.98;;
41627;SDS011;27321;50.816;6.054;2024-02-28T08:15:18;24.13;;;11.57;;
41627;SDS011;27321;50.816;6.054;2024-02-28T08:18:19;19.80;;;10.63;;
41627;SDS011;27321;50.816;6.054;2024-02-28T08:21:20;17.43;;;9.97;;
41627;SDS011;27321;50.816;6.054;2024-02-28T08:24:21;20.43;;;10.93;;
41627;SDS011;27321;50.816;6.054;2024-02-28T08:27:22;18.83;;;9.57;;
41627;SDS011;27321;50.816;6.054;2024-02-28T08:30:26;17.30;;;10.10;;
41627;SDS011;27321;50.816;6.054;2024-02-28T08:33:26;19.13;;;11.03;;
41627;SDS011;27321;50.816;6.054;2024-02-28T08:36:27;19.00;;;9.90;;
41627;SDS011;27321;50.816;6.054;2024-02-28T08:39:28;19.97;;;10.83;;
41627;SDS011;27321;50.816;6.054;2024-02-28T08:42:31;19.17;;;10.50;;
41627;SDS011;27321;50.816;6.054;2024-02-28T08:45:33;20.10;;;11.10;;
41627;SDS011;27321;50.816;6.054;2024-02-28T08:48:34;21.75;;;11.43;;
41627;SDS011;27321;50.816;6.054;2024-02-28T08:51:35;19.77;;;11.13;;
41627;SDS011;27321;50.816;6.054;2024-02-28T08:54:36;17.97;;;9.87;;
41627;SDS011;27321;50.816;6.054;2024-02-28T08:57:36;19.47;;;10.47;;
41627;SDS011;27321;50.816;6.054;2024-02-28T09:00:40;18.23;;;10.57;;
41627;SDS011;27321;50.816;6.054;2024-02-28T09:03:41;16.77;;;9.80;;
41627;SDS011;27321;50.816;6.054;2024-02-28T09:06:43;17.90;;;10.05;;
41627;SDS011;27321;50.816;6.054;2024-02-28T09:09:44;18.88;;;9.93;;
41627;SDS011;27321;50.816;6.054;2024-02-28T09:12:45;18.73;;;11.13;;
41627;SDS011;27321;50.816;6.054;2024-02-28T09:15:46;19.87;;;10.30;;
41627;SDS011;27321;50.816;6.054;2024-02-28T09:18:47;20.07;;;11.47;;
41627;SDS011;27321;50.816;6.054;2024-02-28T09:21:48;14.23;;;7.50;;
41627;SDS011;27321;50.816;6.054;2024-02-28T09:24:49;18.07;;;10.17;;
41627;SDS011;27321;50.816;6.054;2024-02-28T09:27:50;19.23;;;9.83;;
41627;SDS011;27321;50.816;6.054;2024-02-28T09:30:51;15.93;;;9.27;;
41627;SDS011;27321;50.816;6.054;2024-02-28T09:33:52;17.30;;;9.47;;
41627;SDS011;27321;50.816;6.054;2024-02-28T09:36:54;15.23;;;8.90;;
41627;SDS011;27321;50.816;6.054;2024-02-28T09:39:55;15.53;;;9.13;;
41627;SDS011;27321;50.816;6.054;2024-02-28T09:42:58;16.67;;;9.60;;
41627;SDS011;27321;50.816;6.054;2024-02-28T09:46:03;19.67;;;10.17;;
41627;SDS011;27321;50.816;6.054;2024-02-28T09:49:05;18.63;;;10.43;;
41627;SDS011;27321;50.816;6.054;2024-02-28T09:52:07;15.87;;;9.27;;
41627;SDS011;27321;50.816;6.054;2024-02-28T09:55:08;21.70;;;11.43;;
41627;SDS011;27321;50.816;6.054;2024-02-28T09:58:09;19.83;;;11.60;;
41627;SDS011;27321;50.816;6.054;2024-02-28T10:04:14;15.03;;;9.27;;
41627;SDS011;27321;50.816;6.054;2024-02-28T10:07:16;17.23;;;10.17;;
41627;SDS011;27321;50.816;6.054;2024-02-28T10:10:17;18.95;;;10.50;;
41627;SDS011;27321;50.816;6.054;2024-02-28T10:13:18;16.07;;;9.03;;
41627;SDS011;27321;50.816;6.054;2024-02-28T10:16:19;15.43;;;8.53;;
41627;SDS011;27321;50.816;6.054;2024-02-28T10:19:20;15.02;;;7.88;;
41627;SDS011;27321;50.816;6.054;2024-02-28T10:22:21;13.70;;;7.87;;
41627;SDS011;27321;50.816;6.054;2024-02-28T10:25:22;13.60;;;7.27;;
41627;SDS011;27321;50.816;6.054;2024-02-28T10:28:24;14.38;;;7.45;;
41627;SDS011;27321;50.816;6.054;2024-02-28T10:31:24;10.87;;;6.57;;
41627;SDS011;27321;50.816;6.054;2024-02-28T10:34:25;12.20;;;7.07;;
41627;SDS011;27321;50.816;6.054;2024-02-28T10:37:28;12.37;;;6.57;;
41627;SDS011;27321;50.816;6.054;2024-02-28T10:40:33;12.73;;;6.30;;
41627;SDS011;27321;50.816;6.054;2024-02-28T10:43:34;14.03;;;8.50;;
41627;SDS011;27321;50.816;6.054;2024-02-28T10:46:34;14.77;;;8.50;;
41627;SDS011;27321;50.816;6.054;2024-02-28T10:49:37;12.93;;;7.23;;
41627;SDS011;27321;50.816;6.054;2024-02-28T10:52:39;12.33;;;7.63;;
41627;SDS011;27321;50.816;6.054;2024-02-28T10:55:45;11.47;;;7.27;;
41627;SDS011;27321;50.816;6.054;2024-02-28T10:58:52;11.93;;;6.80;;
41627;SDS011;27321;50.816;6.054;2024-02-28T11:01:57;13.07;;;6.50;;
41627;SDS011;27321;50.816;6.054;2024-02-28T11:04:58;14.97;;;7.20;;
41627;SDS011;27321;50.816;6.054;2024-02-28T11:08:02;11.03;;;6.67;;
41627;SDS011;27321;50.816;6.054;2024-02-28T11:11:03;10.55;;;6.30;;
41627;SDS011;27321;50.816;6.054;2024-02-28T11:14:04;10.52;;;6.15;;
41627;SDS011;27321;50.816;6.054;2024-02-28T11:17:06;8.98;;;5.80;;
41627;SDS011;27321;50.816;6.054;2024-02-28T11:20:11;8.63;;;5.63;;
41627;SDS011;27321;50.816;6.054;2024-02-28T11:23:13;11.10;;;6.23;;
41627;SDS011;27321;50.816;6.054;2024-02-28T11:26:16;12.83;;;6.77;;
41627;SDS011;27321;50.816;6.054;2024-02-28T11:29:27;8.68;;;5.55;;
41627;SDS011;27321;50.816;6.054;2024-02-28T11:32:29;14.60;;;7.17;;
41627;SDS011;27321;50.816;6.054;2024-02-28T11:35:32;10.23;;;5.77;;
41627;SDS011;27321;50.816;6.054;2024-02-28T11:38:36;8.03;;;5.40;;
41627;SDS011;27321;50.816;6.054;2024-02-28T11:41:38;8.43;;;5.63;;
41627;SDS011;27321;50.816;6.054;2024-02-28T11:44:40;10.52;;;6.05;;
41627;SDS011;27321;50.816;6.054;2024-02-28T11:47:41;9.05;;;5.00;;
41627;SDS011;27321;50.816;6.054;2024-02-28T11:50:42;9.35;;;4.60;;
41627;SDS011;27321;50.816;6.054;2024-02-28T11:53:43;7.53;;;5.22;;
41627;SDS011;27321;50.816;6.054;2024-02-28T11:56:44;7.82;;;4.70;;
41627;SDS011;27321;50.816;6.054;2024-02-28T11:59:45;6.70;;;4.27;;
41627;SDS011;27321;50.816;6.054;2024-02-28T12:02:46;6.18;;;4.13;;
41627;SDS011;27321;50.816;6.054;2024-02-28T12:05:47;7.05;;;4.07;;
41627;SDS011;27321;50.816;6.054;2024-02-28T12:08:49;6.90;;;4.43;;
41627;SDS011;27321;50.816;6.054;2024-02-28T12:11:51;7.78;;;4.13;;
41627;SDS011;27321;50.816;6.054;2024-02-28T12:14:52;9.52;;;5.85;;
41627;SDS011;27321;50.816;6.054;2024-02-28T12:17:53;8.32;;;4.82;;
41627;SDS011;27321;50.816;6.054;2024-02-28T12:20:54;9.10;;;5.53;;
41627;SDS011;27321;50.816;6.054;2024-02-28T12:23:56;9.07;;;4.90;;
41627;SDS011;27321;50.816;6.054;2024-02-28T12:26:58;7.03;;;4.33;;
41627;SDS011;27321;50.816;6.054;2024-02-28T12:29:59;5.90;;;3.73;;
41627;SDS011;27321;50.816;6.054;2024-02-28T12:33:00;7.18;;;3.42;;
41627;SDS011;27321;50.816;6.054;2024-02-28T12:36:02;8.13;;;4.17;;
41627;SDS011;27321;50.816;6.054;2024-02-28T12:39:04;6.60;;;4.17;;
41627;SDS011;27321;50.816;6.054;2024-02-28T12:42:06;5.35;;;3.10;;
41627;SDS011;27321;50.816;6.054;2024-02-28T12:45:08;7.13;;;4.27;;
41627;SDS011;27321;50.816;6.054;2024-02-28T12:48:09;6.75;;;3.55;;
41627;SDS011;27321;50.816;6.054;2024-02-28T12:51:11;8.03;;;4.60;;
41627;SDS011;27321;50.816;6.054;2024-02-28T12:54:36;7.67;;;4.63;;
41627;SDS011;27321;50.816;6.054;2024-02-28T12:57:37;6.10;;;4.65;;
41627;SDS011;27321;50.816;6.054;2024-02-28T13:00:38;7.80;;;4.97;;
41627;SDS011;27321;50.816;6.054;2024-02-28T13:03:40;10.13;;;5.07;;
41627;SDS011;27321;50.816;6.054;2024-02-28T13:06:40;9.47;;;5.60;;
41627;SDS011;27321;50.816;6.054;2024-02-28T13:09:41;6.57;;;4.07;;
41627;SDS011;27321;50.816;6.054;2024-02-28T13:12:42;6.18;;;4.03;;
41627;SDS011;27321;50.816;6.054;2024-02-28T13:15:46;7.77;;;4.43;;
41627;SDS011;27321;50.816;6.054;2024-02-28T13:18:47;8.40;;;4.77;;
41627;SDS011;27321;50.816;6.054;2024-02-28T13:21:48;8.80;;;5.22;;
41627;SDS011;27321;50.816;6.054;2024-02-28T13:24:49;9.10;;;4.95;;
41627;SDS011;27321;50.816;6.054;2024-02-28T13:27:51;10.20;;;5.82;;
41627;SDS011;27321;50.816;6.054;2024-02-28T13:30:52;8.15;;;4.95;;
41627;SDS011;27321;50.816;6.054;2024-02-28T13:33:53;8.02;;;5.10;;
41627;SDS011;27321;50.816;6.054;2024-02-28T13:36:54;7.90;;;4.38;;
41627;SDS011;27321;50.816;6.054;2024-02-28T13:43:00;5.03;;;3.07;;
41627;SDS011;27321;50.816;6.054;2024-02-28T13:46:03;5.60;;;3.53;;
41627;SDS011;27321;50.816;6.054;2024-02-28T13:49:06;4.85;;;3.10;;
41627;SDS011;27321;50.816;6.054;2024-02-28T13:52:11;5.70;;;4.00;;
41627;SDS011;27321;50.816;6.054;2024-02-28T13:55:15;5.50;;;3.53;;
41627;SDS011;27321;50.816;6.054;2024-02-28T13:58:16;5.33;;;3.53;;
41627;SDS011;27321;50.816;6.054;2024-02-28T14:01:18;7.00;;;4.23;;
41627;SDS011;27321;50.816;6.054;2024-02-28T14:04:19;6.75;;;4.28;;
41627;SDS011;27321;50.816;6.054;2024-02-28T14:07:20;5.90;;;3.92;;
41627;SDS011;27321;50.816;6.054;2024-02-28T14:10:21;6.72;;;3.88;;
41627;SDS011;27321;50.816;6.054;2024-02-28T14:13:23;6.63;;;3.65;;
41627;SDS011;27321;50.816;6.054;2024-02-28T14:16:24;6.13;;;4.77;;
41627;SDS011;27321;50.816;6.054;2024-02-28T14:19:25;5.80;;;3.67;;
41627;SDS011;27321;50.816;6.054;2024-02-28T14:22:26;7.40;;;4.40;;
41627;SDS011;27321;50.816;6.054;2024-02-28T14:25:27;6.25;;;4.30;;
41627;SDS011;27321;50.816;6.054;2024-02-28T14:31:30;4.33;;;3.37;;
41627;SDS011;27321;50.816;6.054;2024-02-28T14:34:31;7.90;;;4.60;;
41627;SDS011;27321;50.816;6.054;2024-02-28T14:37:38;6.90;;;4.30;;
41627;SDS011;27321;50.816;6.054;2024-02-28T14:40:40;5.95;;;3.88;;
41627;SDS011;27321;50.816;6.054;2024-02-28T14:43:41;6.43;;;3.90;;
41627;SDS011;27321;50.816;6.054;2024-02-28T14:46:42;4.75;;;3.60;;
41627;SDS011;27321;50.816;6.054;2024-02-28T14:49:43;5.45;;;3.90;;
41627;SDS011;27321;50.816;6.054;2024-02-28T14:52:44;5.38;;;3.75;;
41627;SDS011;27321;50.816;6.054;2024-02-28T14:55:45;6.82;;;3.85;;
41627;SDS011;27321;50.816;6.054;2024-02-28T14:58:47;7.65;;;4.20;;
41627;SDS011;27321;50.816;6.054;2024-02-28T15:01:48;7.00;;;3.90;;
41627;SDS011;27321;50.816;6.054;2024-02-28T15:07:51;5.67;;;3.77;;
41627;SDS011;27321;50.816;6.054;2024-02-28T15:10:52;5.45;;;3.72;;
41627;SDS011;27321;50.816;6.054;2024-02-28T15:13:53;6.63;;;3.92;;
41627;SDS011;27321;50.816;6.054;2024-02-28T15:16:54;5.68;;;4.10;;
41627;SDS011;27321;50.816;6.054;2024-02-28T15:19:55;5.77;;;3.60;;
41627;SDS011;27321;50.816;6.054;2024-02-28T15:22:56;5.70;;;3.42;;
41627;SDS011;27321;50.816;6.054;2024-02-28T15:26:06;4.43;;;2.87;;
41627;SDS011;27321;50.816;6.054;2024-02-28T15:29:07;3.87;;;3.03;;
41627;SDS011;27321;50.816;6.054;2024-02-28T15:32:08;3.83;;;2.72;;
41627;SDS011;27321;50.816;6.054;2024-02-28T15:35:10;4.15;;;2.70;;
41627;SDS011;27321;50.816;6.054;2024-02-28T15:38:11;3.37;;;2.30;;
41627;SDS011;27321;50.816;6.054;2024-02-28T15:41:16;3.67;;;2.10;;
41627;SDS011;27321;50.816;6.054;2024-02-28T15:47:18;1.97;;;1.77;;
41627;SDS011;27321;50.816;6.054;2024-02-28T15:50:19;2.95;;;2.05;;
41627;SDS011;27321;50.816;6.054;2024-02-28T15:53:20;2.27;;;1.90;;
41627;SDS011;27321;50.816;6.054;2024-02-28T15:56:21;2.63;;;2.05;;
41627;SDS011;27321;50.816;6.054;2024-02-28T15:59:22;3.33;;;1.80;;
41627;SDS011;27321;50.816;6.054;2024-02-28T16:02:26;3.10;;;2.07;;
41627;SDS011;27321;50.816;6.054;2024-02-28T16:05:27;3.37;;;2.30;;
41627;SDS011;27321;50.816;6.054;2024-02-28T16:08:28;2.55;;;2.00;;
41627;SDS011;27321;50.816;6.054;2024-02-28T16:11:29;2.80;;;2.03;;
41627;SDS011;27321;50.816;6.054;2024-02-28T16:14:31;3.97;;;2.10;;
41627;SDS011;27321;50.816;6.054;2024-02-28T16:17:32;3.22;;;2.10;;
41627;SDS011;27321;50.816;6.054;2024-02-28T16:20:34;2.92;;;2.03;;
41627;SDS011;27321;50.816;6.054;2024-02-28T16:23:35;3.90;;;1.93;;
41627;SDS011;27321;50.816;6.054;2024-02-28T16:26:36;2.13;;;1.50;;
41627;SDS011;27321;50.816;6.054;2024-02-28T16:29:37;1.88;;;1.20;;
41627;SDS011;27321;50.816;6.054;2024-02-28T16:32:38;2.78;;;1.88;;
41627;SDS011;27321;50.816;6.054;2024-02-28T16:35:39;2.42;;;1.95;;
41627;SDS011;27321;50.816;6.054;2024-02-28T16:38:40;3.00;;;2.03;;
41627;SDS011;27321;50.816;6.054;2024-02-28T16:41:41;2.83;;;1.90;;
41627;SDS011;27321;50.816;6.054;2024-02-28T16:47:43;2.10;;;1.67;;
41627;SDS011;27321;50.816;6.054;2024-02-28T16:50:44;2.20;;;1.60;;
41627;SDS011;27321;50.816;6.054;2024-02-28T16:53:45;2.72;;;2.20;;
41627;SDS011;27321;50.816;6.054;2024-02-28T16:56:46;2.37;;;1.40;;
41627;SDS011;27321;50.816;6.054;2024-02-28T16:59:47;2.22;;;1.48;;
41627;SDS011;27321;50.816;6.054;2024-02-28T17:02:48;2.05;;;1.38;;
41627;SDS011;27321;50.816;6.054;2024-02-28T17:05:50;2.58;;;1.52;;
41627;SDS011;27321;50.816;6.054;2024-02-28T17:08:51;3.85;;;1.95;;
41627;SDS011;27321;50.816;6.054;2024-02-28T17:11:52;2.67;;;1.60;;
41627;SDS011;27321;50.816;6.054;2024-02-28T17:14:54;2.10;;;1.60;;
41627;SDS011;27321;50.816;6.054;2024-02-28T17:17:56;2.70;;;1.63;;
41627;SDS011;27321;50.816;6.054;2024-02-28T17:20:57;2.13;;;1.67;;
41627;SDS011;27321;50.816;6.054;2024-02-28T17:24:04;2.53;;;1.80;;
41627;SDS011;27321;50.816;6.054;2024-02-28T17:27:05;2.63;;;1.97;;
41627;SDS011;27321;50.816;6.054;2024-02-28T17:30:07;3.53;;;1.80;;
41627;SDS011;27321;50.816;6.054;2024-02-28T17:33:08;2.88;;;2.13;;
41627;SDS011;27321;50.816;6.054;2024-02-28T17:36:09;1.73;;;1.57;;
41627;SDS011;27321;50.816;6.054;2024-02-28T17:39:10;2.17;;;1.60;;
41627;SDS011;27321;50.816;6.054;2024-02-28T17:42:19;2.90;;;2.03;;
41627;SDS011;27321;50.816;6.054;2024-02-28T17:45:20;2.30;;;1.70;;
41627;SDS011;27321;50.816;6.054;2024-02-28T17:48:21;4.18;;;2.22;;
41627;SDS011;27321;50.816;6.054;2024-02-28T17:51:22;2.63;;;1.70;;
41627;SDS011;27321;50.816;6.054;2024-02-28T17:54:23;1.95;;;1.75;;
41627;SDS011;27321;50.816;6.054;2024-02-28T17:57:24;1.90;;;1.63;;
41627;SDS011;27321;50.816;6.054;2024-02-28T18:00:25;2.27;;;1.90;;
41627;SDS011;27321;50.816;6.054;2024-02-28T18:03:26;2.28;;;2.00;;
41627;SDS011;27321;50.816;6.054;2024-02-28T18:06:27;2.67;;;1.80;;
41627;SDS011;27321;50.816;6.054;2024-02-28T18:09:28;3.93;;;1.97;;
41627;SDS011;27321;50.816;6.054;2024-02-28T18:12:29;3.85;;;1.95;;
41627;SDS011;27321;50.816;6.054;2024-02-28T18:15:30;2.53;;;1.98;;
41627;SDS011;27321;50.816;6.054;2024-02-28T18:18:31;2.65;;;1.60;;
41627;SDS011;27321;50.816;6.054;2024-02-28T18:21:33;3.55;;;1.90;;